createdAt,value
2023-05-24T00:00:17.885Z,12.90
2023-05-24T00:01:17.878Z,10.00
2023-05-24T00:02:17.865Z,9.00
2023-05-24T00:03:17.964Z,9.50
2023-05-24T00:05:17.838Z,11.30
2023-05-24T00:06:17.832Z,10.00
2023-05-24T00:07:17.821Z,10.60
2023-05-24T00:08:17.833Z,10.10
2023-05-24T00:09:17.799Z,12.00
2023-05-24T00:10:17.798Z,9.20
2023-05-24T00:11:17.786Z,12.60
2023-05-24T00:12:17.981Z,13.10
2023-05-24T00:13:17.764Z,11.50
2023-05-24T00:15:17.745Z,13.20
2023-05-24T00:16:17.762Z,11.90
2023-05-24T00:17:17.730Z,13.10
2023-05-24T00:18:17.723Z,10.20
2023-05-24T00:19:17.711Z,12.70
2023-05-24T00:20:17.728Z,11.30
2023-05-24T00:21:17.692Z,11.40
2023-05-24T00:22:17.679Z,11.80
2023-05-24T00:23:17.674Z,11.90
2023-05-24T00:25:17.674Z,13.30
2023-05-24T00:26:18.052Z,12.30
2023-05-24T00:27:17.630Z,13.30
2023-05-24T00:28:17.622Z,11.30
2023-05-24T00:29:17.635Z,11.60
2023-05-24T00:30:17.607Z,12.00
2023-05-24T00:31:17.626Z,13.00
2023-05-24T00:32:17.790Z,11.20
2023-05-24T00:33:17.578Z,13.60
2023-05-24T00:34:17.598Z,16.70
2023-05-24T00:35:17.566Z,12.20
2023-05-24T00:36:50.765Z,10.50
2023-05-24T00:37:17.542Z,16.30
2023-05-24T00:39:17.525Z,12.40
2023-05-24T00:41:17.522Z,14.00
2023-05-24T00:42:17.703Z,13.30
2023-05-24T00:43:17.688Z,11.70
2023-05-24T00:44:17.493Z,11.30
2023-05-24T00:46:17.688Z,11.60
2023-05-24T00:48:17.434Z,11.70
2023-05-24T00:49:17.428Z,13.70
2023-05-24T00:50:17.492Z,14.10
2023-05-24T00:51:17.419Z,15.80
2023-05-24T00:52:17.392Z,11.40
2023-05-24T00:56:17.408Z,14.10
2023-05-24T00:57:17.392Z,12.20
2023-05-24T00:58:17.341Z,13.40
2023-05-24T00:59:17.339Z,13.50
2023-05-24T01:00:17.321Z,12.30
2023-05-24T01:01:17.337Z,11.30
2023-05-24T01:02:17.527Z,11.40
2023-05-24T01:03:18.565Z,14.60
2023-05-24T01:04:17.485Z,12.10
2023-05-24T01:05:17.289Z,13.00
2023-05-24T01:06:17.266Z,10.90
2023-05-24T01:07:17.254Z,12.30
2023-05-24T01:08:17.245Z,12.10
2023-05-24T01:10:17.436Z,11.30
2023-05-24T01:11:17.418Z,13.80
2023-05-24T01:12:17.211Z,15.00
2023-05-24T01:13:17.228Z,17.30
2023-05-24T01:14:17.212Z,14.20
2023-05-24T01:15:17.185Z,12.20
2023-05-24T01:16:17.203Z,13.90
2023-05-24T01:17:17.162Z,11.90
2023-05-24T01:18:17.162Z,13.60
2023-05-24T01:19:17.163Z,12.30
2023-05-24T01:20:17.356Z,14.40
2023-05-24T01:22:17.106Z,14.10
2023-05-24T01:24:17.289Z,11.50
2023-05-24T01:26:17.273Z,15.10
2023-05-24T01:27:17.057Z,13.40
2023-05-24T01:31:22.137Z,14.50
2023-05-24T01:34:16.995Z,12.30
2023-05-24T01:35:16.979Z,14.40
2023-05-24T01:36:16.967Z,15.40
2023-05-24T01:37:16.968Z,14.70
2023-05-24T01:38:16.956Z,13.90
2023-05-24T01:39:16.943Z,12.10
2023-05-24T01:40:16.927Z,14.90
2023-05-24T01:41:16.916Z,13.00
2023-05-24T01:42:16.906Z,14.90
2023-05-24T01:43:16.898Z,11.60
2023-05-24T01:44:16.882Z,14.00
2023-05-24T01:45:16.888Z,14.90
2023-05-24T01:46:50.158Z,13.10
2023-05-24T01:47:16.859Z,12.20
2023-05-24T01:48:16.852Z,15.00
2023-05-24T01:49:16.833Z,13.50
2023-05-24T01:50:16.833Z,16.20
2023-05-24T01:51:16.819Z,17.60
2023-05-24T01:52:16.832Z,14.90
2023-05-24T01:53:16.791Z,14.00
2023-05-24T01:54:16.785Z,13.40
2023-05-24T01:56:16.770Z,14.00
2023-05-24T01:57:16.751Z,14.30
2023-05-24T01:58:16.741Z,12.40
2023-05-24T01:59:16.730Z,13.20
2023-05-24T02:00:16.717Z,13.30
2023-05-24T02:01:16.778Z,14.30
2023-05-24T02:02:16.727Z,13.30
2023-05-24T02:03:16.723Z,15.20
2023-05-24T02:04:16.679Z,12.90
2023-05-24T02:05:16.673Z,15.10
2023-05-24T02:06:16.659Z,14.60
2023-05-24T02:07:16.654Z,16.40
2023-05-24T02:08:16.639Z,12.70
2023-05-24T02:10:16.622Z,11.70
2023-05-24T02:11:16.613Z,11.90
2023-05-24T02:12:16.625Z,13.10
2023-05-24T02:13:16.598Z,14.80
2023-05-24T02:15:16.574Z,14.30
2023-05-24T02:16:16.580Z,14.80
2023-05-24T02:17:16.755Z,12.10
2023-05-24T02:18:16.560Z,13.90
2023-05-24T02:19:16.534Z,13.60
2023-05-24T02:20:16.540Z,14.10
2023-05-24T02:21:16.514Z,14.20
2023-05-24T02:22:16.505Z,13.90
2023-05-24T02:23:16.495Z,13.00
2023-05-24T02:24:16.486Z,13.70
2023-05-24T02:25:16.485Z,13.10
2023-05-24T02:26:16.465Z,12.40
2023-05-24T02:27:16.456Z,13.20
2023-05-24T02:28:16.442Z,16.00
2023-05-24T02:29:16.436Z,13.50
2023-05-24T02:30:16.433Z,13.60
2023-05-24T02:31:16.452Z,14.10
2023-05-24T02:32:16.413Z,13.80
2023-05-24T02:33:16.442Z,13.00
2023-05-24T02:34:16.396Z,13.70
2023-05-24T02:35:16.376Z,14.50
2023-05-24T02:36:16.361Z,14.20
2023-05-24T02:37:16.355Z,13.90
2023-05-24T02:38:16.346Z,14.30
2023-05-24T02:39:16.334Z,14.30
2023-05-24T02:41:16.319Z,14.00
2023-05-24T02:42:16.306Z,16.50
2023-05-24T02:43:16.293Z,14.10
2023-05-24T02:44:16.283Z,12.90
2023-05-24T02:45:16.275Z,13.50
2023-05-24T02:46:16.303Z,13.80
2023-05-24T02:47:16.248Z,16.10
2023-05-24T02:48:16.244Z,12.60
2023-05-24T02:49:16.228Z,12.20
2023-05-24T02:50:16.267Z,13.50
2023-05-24T02:51:16.209Z,13.80
2023-05-24T02:52:16.208Z,14.80
2023-05-24T02:53:16.191Z,13.50
2023-05-24T02:54:16.182Z,11.30
2023-05-24T02:55:16.171Z,14.90
2023-05-24T02:56:16.160Z,11.90
2023-05-24T02:57:16.146Z,12.90
2023-05-24T02:58:16.138Z,13.20
2023-05-24T02:59:16.125Z,13.50
2023-05-24T03:00:16.121Z,12.90
2023-05-24T03:01:16.127Z,12.40
2023-05-24T03:02:16.100Z,14.80
2023-05-24T03:03:16.252Z,13.70
2023-05-24T03:04:16.080Z,13.30
2023-05-24T03:05:16.067Z,14.80
2023-05-24T03:06:16.155Z,12.90
2023-05-24T03:07:16.055Z,12.60
2023-05-24T03:08:16.040Z,15.40
2023-05-24T03:09:16.024Z,14.40
2023-05-24T03:10:16.231Z,12.80
2023-05-24T03:11:16.007Z,12.10
2023-05-24T03:12:15.998Z,14.50
2023-05-24T03:13:15.982Z,13.70
2023-05-24T03:14:16.176Z,13.50
2023-05-24T03:15:16.161Z,15.10
2023-05-24T03:17:16.142Z,12.10
2023-05-24T03:18:15.932Z,12.30
2023-05-24T03:19:15.922Z,14.80
2023-05-24T03:20:16.017Z,12.10
2023-05-24T03:22:15.933Z,12.90
2023-05-24T03:23:15.876Z,13.30
2023-05-24T03:24:15.872Z,13.70
2023-05-24T03:25:15.860Z,13.60
2023-05-24T03:26:16.052Z,14.10
2023-05-24T03:27:15.839Z,12.80
2023-05-24T03:28:15.855Z,13.10
2023-05-24T03:29:15.821Z,12.20
2023-05-24T03:30:15.821Z,12.90
2023-05-24T03:31:16.017Z,13.20
2023-05-24T03:32:15.789Z,14.60
2023-05-24T03:33:15.981Z,13.30
2023-05-24T03:34:15.764Z,15.10
2023-05-24T03:35:15.758Z,13.60
2023-05-24T03:36:15.744Z,12.30
2023-05-24T03:37:15.744Z,13.10
2023-05-24T03:38:15.741Z,12.40
2023-05-24T03:39:15.714Z,13.20
2023-05-24T03:40:15.703Z,13.50
2023-05-24T03:41:15.692Z,14.00
2023-05-24T03:42:15.687Z,14.10
2023-05-24T03:43:15.672Z,14.30
2023-05-24T03:44:15.869Z,12.90
2023-05-24T03:45:21.495Z,12.20
2023-05-24T03:46:16.111Z,12.60
2023-05-24T03:47:15.831Z,14.50
2023-05-24T03:49:16.235Z,11.30
2023-05-24T03:50:15.601Z,12.60
2023-05-24T03:51:15.785Z,14.00
2023-05-24T03:52:15.779Z,13.30
2023-05-24T03:53:15.561Z,12.40
2023-05-24T03:54:15.576Z,14.60
2023-05-24T03:55:15.540Z,13.40
2023-05-24T03:56:15.535Z,13.10
2023-05-24T03:57:15.517Z,11.20
2023-05-24T03:58:15.513Z,12.50
2023-05-24T04:00:15.482Z,13.40
2023-05-24T04:01:29.273Z,10.60
2023-05-24T04:02:15.694Z,12.90
2023-05-24T04:04:15.722Z,11.60
2023-05-24T04:05:15.434Z,13.70
2023-05-24T04:06:16.966Z,13.10
2023-05-24T04:07:15.430Z,13.50
2023-05-24T04:09:15.389Z,14.10
2023-05-24T04:10:15.426Z,12.40
2023-05-24T04:11:15.371Z,11.10
2023-05-24T04:12:15.356Z,13.80
2023-05-24T04:13:15.345Z,12.60
2023-05-24T04:14:15.336Z,12.50
2023-05-24T04:16:15.314Z,14.30
2023-05-24T04:18:15.359Z,11.00
2023-05-24T04:20:15.334Z,13.10
2023-05-24T04:21:15.458Z,12.10
2023-05-24T04:22:15.250Z,12.00
2023-05-24T04:23:15.236Z,13.00
2023-05-24T04:25:15.245Z,14.10
2023-05-24T04:27:15.212Z,11.40
2023-05-24T04:28:15.590Z,11.90
2023-05-24T04:29:15.175Z,12.70
2023-05-24T04:30:15.577Z,11.60
2023-05-24T04:31:15.217Z,11.90
2023-05-24T04:32:15.144Z,11.50
2023-05-24T04:33:15.332Z,13.80
2023-05-24T04:34:15.527Z,13.10
2023-05-24T04:35:15.112Z,12.80
2023-05-24T04:36:15.101Z,15.40
2023-05-24T04:37:15.288Z,14.60
2023-05-24T04:38:15.082Z,12.70
2023-05-24T04:39:15.067Z,13.00
2023-05-24T04:40:15.059Z,12.00
2023-05-24T04:41:15.048Z,11.90
2023-05-24T04:42:15.039Z,12.50
2023-05-24T04:43:15.049Z,14.20
2023-05-24T04:44:15.019Z,11.00
2023-05-24T04:45:15.009Z,12.70
2023-05-24T04:46:15.201Z,10.50
2023-05-24T04:47:14.988Z,12.80
2023-05-24T04:49:16.174Z,11.70
2023-05-24T04:50:48.172Z,12.80
2023-05-24T04:51:14.945Z,12.10
2023-05-24T04:59:15.085Z,11.60
2023-05-24T05:00:14.848Z,12.60
2023-05-24T05:02:14.852Z,12.10
2023-05-24T05:03:15.205Z,11.80
2023-05-24T05:07:16.200Z,10.70
2023-05-24T05:14:14.711Z,11.10
2023-05-24T05:15:14.720Z,11.50
2023-05-24T05:16:14.712Z,11.00
2023-05-24T05:17:14.675Z,11.20
2023-05-24T05:18:14.692Z,10.70
2023-05-24T05:20:14.680Z,12.80
2023-05-24T05:21:14.631Z,12.90
2023-05-24T05:22:14.629Z,10.60
2023-05-24T05:23:14.826Z,10.10
2023-05-24T05:24:14.602Z,12.90
2023-05-24T05:26:14.783Z,9.40
2023-05-24T05:27:14.581Z,10.90
2023-05-24T05:28:14.558Z,11.70
2023-05-24T05:29:14.553Z,11.00
2023-05-24T05:30:14.554Z,9.20
2023-05-24T05:31:14.552Z,9.70
2023-05-24T05:32:14.579Z,9.30
2023-05-24T05:33:14.592Z,10.40
2023-05-24T05:34:14.537Z,10.20
2023-05-24T05:35:14.504Z,9.90
2023-05-24T05:36:14.485Z,9.60
2023-05-24T05:37:14.475Z,11.90
2023-05-24T05:38:14.460Z,9.70
2023-05-24T05:39:14.454Z,9.60
2023-05-24T05:40:14.442Z,9.20
2023-05-24T05:41:14.439Z,10.50
2023-05-24T05:42:14.425Z,8.30
2023-05-24T05:43:14.418Z,8.40
2023-05-24T05:44:14.415Z,8.40
2023-05-24T05:45:14.396Z,9.30
2023-05-24T05:46:14.447Z,9.30
2023-05-24T05:47:14.400Z,10.80
2023-05-24T05:48:14.369Z,9.90
2023-05-24T05:49:14.362Z,9.40
2023-05-24T05:50:14.545Z,10.60
2023-05-24T05:51:14.338Z,9.40
2023-05-24T05:52:14.527Z,9.90
2023-05-24T05:53:14.319Z,8.50
2023-05-24T05:54:14.339Z,9.90
2023-05-24T05:55:14.294Z,9.00
2023-05-24T05:56:14.297Z,8.80
2023-05-24T05:57:14.278Z,7.70
2023-05-24T05:58:14.263Z,9.30
2023-05-24T05:59:14.259Z,8.00
2023-05-24T06:00:14.243Z,8.00
2023-05-24T06:01:14.235Z,8.30
2023-05-24T06:02:14.314Z,9.70
2023-05-24T06:03:14.435Z,8.20
2023-05-24T06:04:14.377Z,9.80
2023-05-24T06:05:16.240Z,7.40
2023-05-24T06:06:14.179Z,8.90
2023-05-24T06:07:14.177Z,7.80
2023-05-24T06:08:14.164Z,9.80
2023-05-24T06:09:14.161Z,9.10
2023-05-24T06:10:14.147Z,9.00
2023-05-24T06:11:14.136Z,9.30
2023-05-24T06:12:14.121Z,7.70
2023-05-24T06:13:14.117Z,10.20
2023-05-24T06:14:14.101Z,8.40
2023-05-24T06:15:14.116Z,7.90
2023-05-24T06:16:14.086Z,8.00
2023-05-24T06:17:14.085Z,7.40
2023-05-24T06:18:14.063Z,8.30
2023-05-24T06:19:14.071Z,8.70
2023-05-24T06:20:14.101Z,6.90
2023-05-24T06:21:14.035Z,6.90
2023-05-24T06:23:14.028Z,8.70
2023-05-24T06:24:14.006Z,7.60
2023-05-24T06:25:14.000Z,7.50
2023-05-24T06:26:13.985Z,10.40
2023-05-24T06:27:13.972Z,7.50
2023-05-24T06:28:13.989Z,6.50
2023-05-24T06:29:13.953Z,7.80
2023-05-24T06:30:13.982Z,8.80
2023-05-24T06:31:13.987Z,8.70
2023-05-24T06:32:47.203Z,7.50
2023-05-24T06:33:13.924Z,7.70
2023-05-24T06:34:13.906Z,8.50
2023-05-24T06:35:14.014Z,7.90
2023-05-24T06:36:13.884Z,10.70
2023-05-24T06:37:14.090Z,9.70
2023-05-24T06:38:13.864Z,9.10
2023-05-24T06:39:13.857Z,7.80
2023-05-24T06:40:13.865Z,7.00
2023-05-24T06:41:13.842Z,7.10
2023-05-24T06:42:13.844Z,7.50
2023-05-24T06:43:13.818Z,8.00
2023-05-24T06:44:13.803Z,8.90
2023-05-24T06:45:13.796Z,7.80
2023-05-24T06:46:13.784Z,8.20
2023-05-24T06:47:13.834Z,8.00
2023-05-24T06:48:13.861Z,9.30
2023-05-24T06:49:13.839Z,8.60
2023-05-24T06:50:13.748Z,8.10
2023-05-24T06:51:13.781Z,7.70
2023-05-24T06:52:13.724Z,9.30
2023-05-24T06:53:13.717Z,7.80
2023-05-24T06:54:13.712Z,7.40
2023-05-24T06:55:13.695Z,7.70
2023-05-24T06:56:13.691Z,8.40
2023-05-24T06:57:13.726Z,7.10
2023-05-24T06:58:13.722Z,7.70
2023-05-24T06:59:13.859Z,10.10
2023-05-24T07:00:13.678Z,9.10
2023-05-24T07:01:13.666Z,8.20
2023-05-24T07:02:13.827Z,8.00
2023-05-24T07:03:13.643Z,6.70
2023-05-24T07:04:13.723Z,7.70
2023-05-24T07:05:13.646Z,7.20
2023-05-24T07:06:13.583Z,6.40
2023-05-24T07:07:13.822Z,6.80
2023-05-24T07:08:13.567Z,8.90
2023-05-24T07:09:13.559Z,6.70
2023-05-24T07:10:13.563Z,7.10
2023-05-24T07:11:13.579Z,8.50
2023-05-24T07:12:13.545Z,9.80
2023-05-24T07:13:13.642Z,10.50
2023-05-24T07:14:13.515Z,7.00
2023-05-24T07:15:13.503Z,6.70
2023-05-24T07:16:13.496Z,8.90
2023-05-24T07:17:13.566Z,6.70
2023-05-24T07:18:13.468Z,6.90
2023-05-24T07:19:13.483Z,8.60
2023-05-24T07:20:13.480Z,9.20
2023-05-24T07:21:13.455Z,7.00
2023-05-24T07:22:13.460Z,6.30
2023-05-24T07:23:13.445Z,8.20
2023-05-24T07:24:15.465Z,7.10
2023-05-24T07:25:13.403Z,6.40
2023-05-24T07:26:13.401Z,9.30
2023-05-24T07:28:13.373Z,7.60
2023-05-24T07:29:13.364Z,8.90
2023-05-24T07:30:23.747Z,8.10
2023-05-24T07:31:13.375Z,6.40
2023-05-24T07:32:13.356Z,6.90
2023-05-24T07:33:13.349Z,7.50
2023-05-24T07:34:13.317Z,7.20
2023-05-24T07:35:13.303Z,7.30
2023-05-24T07:36:13.294Z,6.70
2023-05-24T07:37:13.282Z,6.90
2023-05-24T07:38:13.294Z,7.20
2023-05-24T07:39:13.292Z,6.10
2023-05-24T07:40:13.266Z,8.60
2023-05-24T07:41:13.253Z,7.10
2023-05-24T07:42:13.240Z,6.90
2023-05-24T07:43:13.224Z,6.70
2023-05-24T07:44:13.222Z,7.30
2023-05-24T07:45:13.213Z,8.00
2023-05-24T07:46:13.243Z,7.30
2023-05-24T07:47:13.191Z,7.50
2023-05-24T07:48:13.236Z,7.80
2023-05-24T07:49:13.177Z,6.40
2023-05-24T07:50:13.176Z,8.30
2023-05-24T07:51:13.151Z,6.40
2023-05-24T07:52:13.158Z,10.00
2023-05-24T07:53:13.334Z,7.60
2023-05-24T07:54:13.125Z,6.10
2023-05-24T07:55:13.162Z,7.80
2023-05-24T07:56:13.111Z,7.90
2023-05-24T07:57:13.100Z,6.30
2023-05-24T07:58:13.087Z,7.00
2023-05-24T07:59:13.075Z,7.80
2023-05-24T08:00:13.067Z,6.60
2023-05-24T08:01:13.055Z,6.00
2023-05-24T08:02:13.054Z,6.10
2023-05-24T08:03:13.382Z,7.20
2023-05-24T08:04:13.040Z,5.80
2023-05-24T08:05:13.043Z,6.10
2023-05-24T08:06:13.017Z,5.80
2023-05-24T08:07:13.035Z,6.80
2023-05-24T08:08:12.998Z,7.70
2023-05-24T08:09:12.982Z,7.20
2023-05-24T08:10:12.986Z,6.60
2023-05-24T08:11:12.986Z,6.20
2023-05-24T08:12:14.387Z,6.60
2023-05-24T08:13:12.944Z,6.50
2023-05-24T08:14:12.943Z,7.10
2023-05-24T08:15:12.926Z,7.20
2023-05-24T08:16:12.979Z,7.90
2023-05-24T08:17:12.914Z,8.00
2023-05-24T08:18:12.935Z,7.40
2023-05-24T08:19:12.891Z,5.90
2023-05-24T08:20:12.921Z,6.60
2023-05-24T08:21:12.870Z,7.10
2023-05-24T08:22:12.858Z,6.00
2023-05-24T08:23:12.862Z,4.90
2023-05-24T08:24:12.873Z,6.60
2023-05-24T08:25:12.855Z,7.50
2023-05-24T08:26:12.822Z,5.80
2023-05-24T08:27:12.849Z,7.80
2023-05-24T08:28:12.844Z,9.10
2023-05-24T08:29:12.796Z,6.00
2023-05-24T08:30:12.806Z,5.90
2023-05-24T08:31:12.896Z,6.50
2023-05-24T08:32:12.905Z,7.30
2023-05-24T08:33:12.812Z,8.80
2023-05-24T08:34:12.776Z,6.70
2023-05-24T08:35:21.029Z,7.00
2023-05-24T08:36:12.730Z,6.10
2023-05-24T08:37:14.264Z,8.10
2023-05-24T08:38:12.717Z,8.00
2023-05-24T08:39:12.706Z,6.60
2023-05-24T08:40:12.894Z,6.30
2023-05-24T08:41:12.691Z,5.40
2023-05-24T08:42:12.687Z,11.20
2023-05-24T08:43:12.692Z,6.90
2023-05-24T08:44:12.655Z,6.70
2023-05-24T08:45:12.648Z,7.70
2023-05-24T08:46:12.767Z,8.10
2023-05-24T08:47:12.638Z,6.80
2023-05-24T08:48:12.716Z,5.50
2023-05-24T08:49:12.663Z,9.00
2023-05-24T08:50:12.612Z,6.40
2023-05-24T08:51:12.622Z,7.20
2023-05-24T08:52:12.603Z,5.80
2023-05-24T08:53:12.613Z,7.90
2023-05-24T08:54:12.577Z,5.60
2023-05-24T08:55:12.569Z,5.90
2023-05-24T08:56:12.555Z,8.30
2023-05-24T08:57:12.552Z,8.70
2023-05-24T08:58:12.536Z,8.90
2023-05-24T08:59:12.613Z,6.30
2023-05-24T09:00:12.558Z,6.60
2023-05-24T09:01:12.567Z,6.10
2023-05-24T09:02:12.539Z,6.20
2023-05-24T09:03:12.656Z,5.60
2023-05-24T09:04:12.541Z,7.00
2023-05-24T09:06:12.526Z,6.40
2023-05-24T09:07:12.470Z,6.80
2023-05-24T09:08:12.484Z,6.70
2023-05-24T09:09:12.442Z,6.50
2023-05-24T09:10:12.456Z,5.80
2023-05-24T09:11:12.475Z,8.50
2023-05-24T09:12:16.863Z,6.00
2023-05-24T09:13:12.429Z,6.70
2023-05-24T09:14:12.400Z,8.10
2023-05-24T09:15:12.456Z,7.80
2023-05-24T09:16:12.452Z,8.20
2023-05-24T09:17:12.406Z,6.10
2023-05-24T09:18:12.391Z,8.50
2023-05-24T09:19:12.357Z,7.00
2023-05-24T09:20:12.372Z,8.10
2023-05-24T09:21:12.381Z,8.00
2023-05-24T09:22:12.337Z,7.40
2023-05-24T09:23:12.328Z,8.10
2023-05-24T09:24:12.333Z,9.70
2023-05-24T09:25:12.309Z,8.60
2023-05-24T09:26:12.301Z,9.00
2023-05-24T09:27:12.288Z,10.80
2023-05-24T09:28:12.291Z,6.90
2023-05-24T09:29:12.259Z,6.60
2023-05-24T09:30:12.280Z,7.30
2023-05-24T09:31:12.321Z,9.20
2023-05-24T09:32:12.282Z,9.80
2023-05-24T09:33:12.279Z,8.60
2023-05-24T09:34:12.214Z,6.90
2023-05-24T09:35:12.223Z,7.10
2023-05-24T09:36:12.205Z,7.30
2023-05-24T09:37:12.198Z,7.00
2023-05-24T09:38:12.176Z,7.80
2023-05-24T09:39:12.185Z,6.60
2023-05-24T09:40:12.158Z,7.80
2023-05-24T09:41:12.175Z,8.70
2023-05-24T09:42:12.142Z,7.10
2023-05-24T09:43:12.122Z,8.80
2023-05-24T09:44:12.118Z,8.10
2023-05-24T09:45:12.162Z,5.40
2023-05-24T09:46:12.112Z,7.80
2023-05-24T09:47:12.172Z,7.70
2023-05-24T09:48:12.222Z,6.60
2023-05-24T09:49:12.089Z,7.40
2023-05-24T09:50:12.059Z,7.60
2023-05-24T09:51:12.050Z,7.30
2023-05-24T09:52:12.112Z,8.00
2023-05-24T09:53:12.044Z,8.80
2023-05-24T09:54:12.025Z,7.70
2023-05-24T09:55:12.009Z,9.10
2023-05-24T09:56:12.002Z,7.50
2023-05-24T09:57:11.987Z,6.10
2023-05-24T09:58:11.986Z,7.50
2023-05-24T09:59:11.972Z,9.60
2023-05-24T10:00:11.965Z,7.30
2023-05-24T10:01:11.975Z,7.50
2023-05-24T10:02:11.957Z,8.20
2023-05-24T10:03:12.169Z,8.10
2023-05-24T10:04:12.007Z,8.70
2023-05-24T10:05:11.914Z,8.70
2023-05-24T10:06:11.910Z,9.20
2023-05-24T10:07:11.894Z,10.50
2023-05-24T10:08:11.889Z,10.00
2023-05-24T10:09:11.877Z,8.60
2023-05-24T10:10:11.870Z,9.40
2023-05-24T10:11:11.857Z,8.80
2023-05-24T10:12:11.849Z,8.40
2023-05-24T10:13:11.834Z,7.90
2023-05-24T10:14:11.854Z,9.10
2023-05-24T10:15:11.818Z,7.10
2023-05-24T10:16:11.826Z,9.40
2023-05-24T10:17:11.903Z,8.30
2023-05-24T10:18:14.182Z,7.70
2023-05-24T10:19:11.805Z,7.40
2023-05-24T10:20:11.796Z,7.90
2023-05-24T10:21:11.801Z,8.40
2023-05-24T10:22:11.752Z,10.00
2023-05-24T10:23:11.745Z,8.20
2023-05-24T10:24:11.732Z,8.40
2023-05-24T10:25:11.722Z,9.30
2023-05-24T10:26:11.713Z,8.00
2023-05-24T10:27:11.699Z,7.60
2023-05-24T10:28:11.693Z,9.90
2023-05-24T10:29:11.680Z,8.40
2023-05-24T10:30:13.807Z,10.10
2023-05-24T10:31:11.706Z,8.80
2023-05-24T10:32:11.655Z,8.30
2023-05-24T10:33:11.676Z,6.50
2023-05-24T10:34:11.629Z,7.80
2023-05-24T10:35:11.662Z,7.30
2023-05-24T10:36:11.615Z,9.80
2023-05-24T10:37:11.601Z,7.50
2023-05-24T10:38:11.593Z,8.40
2023-05-24T10:39:11.586Z,9.20
2023-05-24T10:40:11.576Z,9.70
2023-05-24T10:41:11.561Z,8.70
2023-05-24T10:42:11.560Z,9.60
2023-05-24T10:43:11.548Z,7.70
2023-05-24T10:44:11.536Z,8.90
2023-05-24T10:45:11.517Z,11.50
2023-05-24T10:46:11.579Z,8.40
2023-05-24T10:47:11.564Z,9.40
2023-05-24T10:48:11.576Z,7.70
2023-05-24T10:49:11.481Z,8.10
2023-05-24T10:50:11.478Z,9.00
2023-05-24T10:51:11.507Z,9.50
2023-05-24T10:52:11.463Z,7.10
2023-05-24T10:53:11.449Z,7.30
2023-05-24T10:54:11.435Z,7.90
2023-05-24T10:55:11.437Z,10.30
2023-05-24T10:56:11.415Z,8.80
2023-05-24T10:57:11.405Z,7.90
2023-05-24T10:58:11.398Z,9.10
2023-05-24T10:59:11.402Z,7.80
2023-05-24T11:00:15.490Z,6.90
2023-05-24T11:01:11.396Z,9.00
2023-05-24T11:02:11.457Z,8.80
2023-05-24T11:03:11.466Z,9.10
2023-05-24T11:04:11.356Z,9.00
2023-05-24T11:05:11.341Z,8.40
2023-05-24T11:06:11.339Z,9.20
2023-05-24T11:07:11.350Z,8.40
2023-05-24T11:08:11.305Z,8.80
2023-05-24T11:09:11.290Z,6.00
2023-05-24T11:10:11.419Z,6.90
2023-05-24T11:11:22.273Z,8.40
2023-05-24T11:12:11.270Z,8.90
2023-05-24T11:13:11.261Z,7.60
2023-05-24T11:14:11.243Z,7.80
2023-05-24T11:15:11.235Z,9.70
2023-05-24T11:16:11.254Z,7.70
2023-05-24T11:17:11.233Z,9.10
2023-05-24T11:18:11.257Z,8.10
2023-05-24T11:19:11.199Z,12.30
2023-05-24T11:20:11.289Z,8.20
2023-05-24T11:21:11.190Z,6.90
2023-05-24T11:22:11.176Z,8.60
2023-05-24T11:23:11.216Z,11.30
2023-05-24T11:24:11.163Z,9.70
2023-05-24T11:25:11.140Z,6.00
2023-05-24T11:26:11.168Z,8.20
2023-05-24T11:27:11.122Z,8.50
2023-05-24T11:28:11.166Z,6.80
2023-05-24T11:29:11.108Z,7.30
2023-05-24T11:30:11.113Z,9.00
2023-05-24T11:31:11.130Z,8.40
2023-05-24T11:32:11.289Z,8.40
2023-05-24T11:33:11.100Z,9.30
2023-05-24T11:34:11.063Z,7.40
2023-05-24T11:35:11.056Z,8.50
2023-05-24T11:36:11.053Z,10.60
2023-05-24T11:37:11.034Z,9.90
2023-05-24T11:38:11.028Z,7.80
2023-05-24T11:39:11.174Z,9.30
2023-05-24T11:40:11.012Z,8.20
2023-05-24T11:41:10.996Z,9.80
2023-05-24T11:42:11.003Z,7.20
2023-05-24T11:43:10.978Z,7.50
2023-05-24T11:44:10.996Z,9.20
2023-05-24T11:45:10.973Z,8.50
2023-05-24T11:46:10.980Z,9.50
2023-05-24T11:47:10.948Z,11.70
2023-05-24T11:48:11.029Z,11.40
2023-05-24T11:49:10.929Z,7.20
2023-05-24T11:50:10.922Z,8.50
2023-05-24T11:51:10.909Z,8.80
2023-05-24T11:52:10.913Z,9.80
2023-05-24T11:53:10.892Z,10.30
2023-05-24T11:54:10.885Z,9.90
2023-05-24T11:55:10.905Z,7.90
2023-05-24T11:56:10.870Z,9.40
2023-05-24T11:57:10.860Z,7.20
2023-05-24T11:58:10.861Z,9.30
2023-05-24T11:59:10.842Z,10.90
2023-05-24T12:00:10.848Z,10.60
2023-05-24T12:01:10.830Z,8.30
2023-05-24T12:02:10.950Z,8.80
2023-05-24T12:03:10.945Z,7.80
2023-05-24T12:04:10.927Z,8.70
2023-05-24T12:05:10.832Z,9.20
2023-05-24T12:06:10.787Z,6.50
2023-05-24T12:07:10.793Z,10.40
2023-05-24T12:08:12.549Z,8.20
2023-05-24T12:09:10.865Z,10.10
2023-05-24T12:10:10.759Z,8.90
2023-05-24T12:11:10.766Z,10.20
2023-05-24T12:12:10.745Z,11.70
2023-05-24T12:13:10.897Z,8.80
2023-05-24T12:14:10.902Z,10.00
2023-05-24T12:15:10.881Z,8.80
2023-05-24T12:16:10.921Z,9.10
2023-05-24T12:17:10.863Z,8.40
2023-05-24T12:18:10.740Z,8.20
2023-05-24T12:19:17.157Z,9.40
2023-05-24T12:20:10.747Z,7.90
2023-05-24T12:21:10.655Z,6.50
2023-05-24T12:22:10.689Z,9.10
2023-05-24T12:23:10.640Z,7.00
2023-05-24T12:24:10.654Z,8.90
2023-05-24T12:25:10.622Z,7.60
2023-05-24T12:26:10.615Z,9.10
2023-05-24T12:27:10.633Z,8.30
2023-05-24T12:28:10.597Z,9.20
2023-05-24T12:29:10.584Z,8.20
2023-05-24T12:30:10.590Z,9.00
2023-05-24T12:31:10.655Z,7.40
2023-05-24T12:32:10.558Z,7.20
2023-05-24T12:33:10.596Z,7.90
2023-05-24T12:34:10.540Z,9.00
2023-05-24T12:35:10.541Z,7.80
2023-05-24T12:36:10.522Z,6.80
2023-05-24T12:37:10.535Z,6.90
2023-05-24T12:38:10.506Z,6.70
2023-05-24T12:39:10.500Z,8.60
2023-05-24T12:40:10.484Z,9.50
2023-05-24T12:41:13.645Z,6.30
2023-05-24T12:42:10.468Z,6.70
2023-05-24T12:43:10.487Z,5.60
2023-05-24T12:44:10.448Z,7.40
2023-05-24T12:45:10.449Z,10.90
2023-05-24T12:46:10.431Z,6.60
2023-05-24T12:47:10.612Z,13.20
2023-05-24T12:48:10.470Z,7.20
2023-05-24T12:49:10.412Z,8.10
2023-05-24T12:50:10.397Z,5.60
2023-05-24T12:51:10.384Z,8.30
2023-05-24T12:52:10.374Z,7.50
2023-05-24T12:53:10.368Z,7.20
2023-05-24T12:54:10.359Z,5.80
2023-05-24T12:55:10.350Z,6.50
2023-05-24T12:56:10.341Z,7.20
2023-05-24T12:57:10.332Z,7.10
2023-05-24T12:58:10.331Z,8.20
2023-05-24T12:59:10.337Z,8.90
2023-05-24T13:00:10.336Z,5.90
2023-05-24T13:01:10.354Z,7.50
2023-05-24T13:02:10.287Z,6.00
2023-05-24T13:03:10.336Z,8.30
2023-05-24T13:04:10.270Z,7.40
2023-05-24T13:05:10.328Z,9.10
2023-05-24T13:06:10.268Z,7.00
2023-05-24T13:07:10.268Z,7.00
2023-05-24T13:08:10.246Z,8.50
2023-05-24T13:09:10.233Z,6.40
2023-05-24T13:10:10.231Z,7.40
2023-05-24T13:11:10.217Z,6.10
2023-05-24T13:12:10.213Z,11.80
2023-05-24T13:13:10.231Z,8.50
2023-05-24T13:14:10.195Z,6.10
2023-05-24T13:15:10.225Z,8.70
2023-05-24T13:16:10.242Z,8.60
2023-05-24T13:17:10.309Z,8.40
2023-05-24T13:18:10.179Z,7.10
2023-05-24T13:19:10.155Z,8.70
2023-05-24T13:20:10.165Z,9.60
2023-05-24T13:21:12.370Z,8.40
2023-05-24T13:22:10.128Z,9.40
2023-05-24T13:23:10.120Z,7.20
2023-05-24T13:24:10.106Z,7.50
2023-05-24T13:25:10.103Z,11.00
2023-05-24T13:26:10.094Z,5.40
2023-05-24T13:27:10.092Z,7.40
2023-05-24T13:28:10.082Z,7.60
2023-05-24T13:30:10.072Z,8.00
2023-05-24T13:31:10.131Z,8.80
2023-05-24T13:32:10.045Z,5.90
2023-05-24T13:33:10.109Z,7.80
2023-05-24T13:34:10.045Z,9.10
2023-05-24T13:35:10.026Z,12.50
2023-05-24T13:36:10.014Z,7.50
2023-05-24T13:37:10.021Z,6.80
2023-05-24T13:38:10.004Z,10.10
2023-05-24T13:40:10.004Z,7.10
2023-05-24T13:41:09.981Z,9.90
2023-05-24T13:42:09.992Z,10.00
2023-05-24T13:43:09.959Z,11.50
2023-05-24T13:44:10.306Z,7.50
2023-05-24T13:45:10.146Z,8.70
2023-05-24T13:46:11.644Z,8.90
2023-05-24T13:47:10.183Z,7.90
2023-05-24T13:48:09.965Z,9.60
2023-05-24T13:49:09.913Z,7.90
2023-05-24T13:50:09.905Z,5.80
2023-05-24T13:51:09.895Z,11.20
2023-05-24T13:52:09.882Z,8.10
2023-05-24T13:53:09.883Z,8.40
2023-05-24T13:54:09.870Z,9.00
2023-05-24T13:55:09.869Z,9.10
2023-05-24T13:56:09.849Z,11.90
2023-05-24T13:57:09.852Z,8.10
2023-05-24T13:58:09.865Z,7.30
2023-05-24T13:59:09.835Z,8.00
2023-05-24T14:00:09.847Z,7.90
2023-05-24T14:01:09.844Z,6.50
2023-05-24T14:02:09.820Z,8.20
2023-05-24T14:03:09.855Z,10.70
2023-05-24T14:04:09.789Z,9.70
2023-05-24T14:06:09.813Z,13.00
2023-05-24T14:07:09.819Z,10.50